Time;durP1;ratioP1;P1;durP2;ratioP2;P2;SDS_P1;SDS_P2;PMS_P1;PMS_P2;Temp;Humidity;BMP_temperature;BMP_pressure;BME280_temperature;BME280_humidity;BME280_pressure;Samples;Min_cycle;Max_cycle;Signal;HPM_P1;HPM_P2
2022/03/09 00:01:37;;;;;;;20.90;8.32;;;-1.70;99.90;;;;;;5052851;28;19946;-53
2022/03/09 00:04:04;;;;;;;19.13;8.63;;;-1.60;99.90;;;;;;5052290;28;20401;-54
2022/03/09 00:06:31;;;;;;;20.25;7.55;;;-1.70;99.90;;;;;;5052505;28;20063;-53
2022/03/09 00:08:58;;;;;;;15.90;7.00;;;-1.70;99.90;;;;;;5052363;28;20041;-53
2022/03/09 00:11:26;;;;;;;16.52;6.57;;;-1.70;99.90;;;;;;5052882;28;20048;-52
2022/03/09 00:13:52;;;;;;;16.52;7.70;;;-1.70;99.90;;;;;;5052170;28;20175;-53
2022/03/09 00:16:19;;;;;;;22.50;9.52;;;-1.70;99.90;;;;;;5044998;28;20115;-55
2022/03/09 00:18:46;;;;;;;24.30;9.88;;;-1.70;99.90;;;;;;5052112;28;20037;-52
2022/03/09 00:21:13;;;;;;;21.95;10.20;;;-1.70;99.90;;;;;;5046415;28;20488;-54
2022/03/09 00:23:41;;;;;;;;;;;-1.60;99.90;;;;;;5051856;28;20041;-55
2022/03/09 00:26:09;;;;;;;21.30;8.50;;;-1.60;99.90;;;;;;5047118;28;19957;-53
2022/03/09 00:28:36;;;;;;;18.33;7.95;;;-1.60;99.90;;;;;;5051945;28;20306;-51
2022/03/09 00:31:04;;;;;;;23.67;9.77;;;-1.60;99.90;;;;;;5046676;28;20501;-53
2022/03/09 00:33:32;;;;;;;23.13;9.48;;;-1.70;99.90;;;;;;5051787;28;20037;-55
2022/03/09 00:35:59;;;;;;;19.48;8.35;;;-1.70;99.90;;;;;;5046760;28;20048;-51
2022/03/09 00:38:27;;;;;;;26.70;8.50;;;-1.60;99.90;;;;;;5051676;28;20513;-54
2022/03/09 00:40:54;;;;;;;20.48;8.02;;;-1.60;99.90;;;;;;5046620;28;20551;-52
2022/03/09 00:43:21;;;;;;;17.30;6.60;;;-1.60;99.90;;;;;;5052080;28;20064;-54
2022/03/09 00:45:48;;;;;;;22.80;9.73;;;-1.60;99.90;;;;;;5031502;28;20049;-54
2022/03/09 00:48:15;;;;;;;23.80;8.95;;;-1.70;99.90;;;;;;5050925;28;20132;-52
2022/03/09 00:50:42;;;;;;;19.75;8.43;;;-1.70;99.90;;;;;;5046117;28;20046;-57
2022/03/09 00:53:09;;;;;;;19.77;8.23;;;-1.70;99.90;;;;;;5043544;28;20091;-53
2022/03/09 00:55:38;;;;;;;23.13;9.18;;;-1.70;99.90;;;;;;5046923;28;20046;-52
2022/03/09 00:58:04;;;;;;;;;;;-1.70;99.90;;;;;;5051312;28;20049;-53
2022/03/09 01:00:31;;;;;;;20.05;8.45;;;-1.70;99.90;;;;;;5046986;28;19925;-54
2022/03/09 01:02:59;;;;;;;21.90;9.02;;;-1.60;99.90;;;;;;5050793;28;20055;-52
2022/03/09 01:05:26;;;;;;;19.15;8.60;;;-1.60;99.90;;;;;;5048377;28;20048;-55
2022/03/09 01:07:53;;;;;;;22.23;9.88;;;-1.60;99.90;;;;;;5050158;28;20110;-53
2022/03/09 01:10:20;;;;;;;18.90;7.05;;;-1.60;99.90;;;;;;5048353;28;20045;-56
2022/03/09 01:12:47;;;;;;;19.40;7.90;;;-1.60;99.90;;;;;;5048676;28;20041;-52
2022/03/09 01:15:13;;;;;;;25.10;10.07;;;-1.60;99.90;;;;;;5047820;28;20146;-54
2022/03/09 01:17:44;;;;;;;23.08;10.07;;;-1.60;99.90;;;;;;5051080;28;20043;-54
2022/03/09 01:20:12;;;;;;;22.17;8.82;;;-1.60;99.90;;;;;;5040287;28;20087;-54
2022/03/09 01:22:39;;;;;;;17.60;7.90;;;-1.60;99.90;;;;;;5050881;28;20461;-52
2022/03/09 01:25:07;;;;;;;19.70;8.30;;;-1.70;99.90;;;;;;5050105;28;20515;-57
2022/03/09 01:27:34;;;;;;;19.30;8.75;;;-1.70;99.90;;;;;;5046400;28;20037;-56
2022/03/09 01:30:01;;;;;;;21.77;8.20;;;-1.70;99.90;;;;;;5050921;28;20564;-53
2022/03/09 01:32:29;;;;;;;22.58;8.43;;;-1.70;99.90;;;;;;5047977;28;20038;-52
2022/03/09 01:34:55;;;;;;;21.50;8.60;;;-1.70;99.90;;;;;;5050300;28;20056;-54
2022/03/09 01:37:22;;;;;;;27.48;9.65;;;-1.70;99.90;;;;;;5051169;28;20103;-52
2022/03/09 01:39:51;;;;;;;21.55;8.07;;;-1.70;99.90;;;;;;5048758;28;20045;-52
2022/03/09 01:42:18;;;;;;;19.77;8.35;;;-1.70;99.90;;;;;;5045136;28;20048;-52
2022/03/09 01:44:44;;;;;;;13.30;6.25;;;-1.80;99.90;;;;;;5050974;28;20119;-53
2022/03/09 01:47:11;;;;;;;20.92;9.13;;;-1.80;99.90;;;;;;5048961;28;20041;-52
2022/03/09 01:49:39;;;;;;;20.42;8.15;;;-1.80;99.90;;;;;;5048917;28;20451;-56
2022/03/09 01:52:07;;;;;;;24.10;8.05;;;-1.80;99.90;;;;;;5051085;28;20051;-52
2022/03/09 01:54:35;;;;;;;20.33;9.02;;;-1.80;99.90;;;;;;5049062;28;20041;-57
2022/03/09 01:57:03;;;;;;;21.48;8.90;;;-1.80;99.90;;;;;;5050032;28;20764;-53
2022/03/09 01:59:29;;;;;;;18.45;9.10;;;-1.80;99.90;;;;;;5033202;28;20044;-52
2022/03/09 02:01:56;;;;;;;20.70;8.43;;;-1.80;99.90;;;;;;5050552;28;20057;-53
2022/03/09 02:04:24;;;;;;;17.00;8.23;;;-1.80;99.90;;;;;;5047842;28;20056;-54
2022/03/09 02:06:50;;;;;;;18.13;7.63;;;-1.80;99.90;;;;;;5049901;28;20045;-55
2022/03/09 02:12:03;;;;;;;19.80;8.02;;;-1.80;99.90;;;;;;5051238;28;20045;-53
2022/03/09 02:14:31;;;;;;;16.15;7.18;;;-1.90;99.90;;;;;;5050449;28;20041;-54
2022/03/09 02:17:12;;;;;;;16.92;7.95;;;-1.90;99.90;;;;;;5050932;28;20049;-53
2022/03/09 02:19:40;;;;;;;19.92;7.60;;;-1.90;99.90;;;;;;5050524;28;20052;-55
2022/03/09 02:22:12;;;;;;;19.25;6.78;;;-2.00;99.90;;;;;;5052634;28;20040;-53
2022/03/09 02:24:40;;;;;;;14.55;7.20;;;-2.00;99.90;;;;;;5054912;28;20063;-52
2022/03/09 02:27:07;;;;;;;17.55;7.10;;;-1.90;99.90;;;;;;5054931;28;20053;-53
2022/03/09 02:29:33;;;;;;;21.67;7.70;;;-2.00;99.90;;;;;;5054610;28;20033;-53
2022/03/09 02:32:01;;;;;;;13.98;5.35;;;-1.90;99.90;;;;;;5053950;28;20037;-52
2022/03/09 02:34:29;;;;;;;20.08;7.97;;;-1.90;99.90;;;;;;5053010;22;20051;-53
2022/03/09 02:36:56;;;;;;;;;;;-1.90;99.90;;;;;;5072552;28;20044;-53
2022/03/09 02:39:23;;;;;;;18.77;7.82;;;-1.90;99.90;;;;;;5070582;28;19924;-55
2022/03/09 02:41:50;;;;;;;18.48;7.40;;;-1.90;99.90;;;;;;5074579;28;20066;-54
2022/03/09 02:44:17;;;;;;;13.02;6.63;;;-2.00;99.90;;;;;;5072804;28;20093;-52
2022/03/09 02:46:44;;;;;;;16.63;7.18;;;-2.00;99.90;;;;;;5074131;28;20093;-55
2022/03/09 02:49:11;;;;;;;21.38;8.07;;;-2.00;99.90;;;;;;5074012;28;20497;-52
2022/03/09 02:51:38;;;;;;;15.13;7.13;;;-2.00;99.90;;;;;;5074511;28;20041;-53
2022/03/09 02:54:05;;;;;;;23.25;8.90;;;-2.00;99.90;;;;;;5065913;28;20047;-51
2022/03/09 02:56:32;;;;;;;19.15;7.75;;;-2.00;99.90;;;;;;5074533;28;20449;-55
2022/03/09 02:58:59;;;;;;;16.35;7.05;;;-2.00;99.90;;;;;;5074037;28;20053;-52
2022/03/09 03:01:27;;;;;;;20.23;8.13;;;-1.90;99.90;;;;;;5069541;28;20128;-52
2022/03/09 03:03:54;;;;;;;19.88;7.22;;;-2.00;99.90;;;;;;5074227;28;20075;-52
2022/03/09 03:06:21;;;;;;;;;;;-2.10;99.90;;;;;;5074604;28;20052;-51
2022/03/09 03:08:48;;;;;;;15.05;6.45;;;-2.20;99.90;;;;;;5073681;28;20430;-54
2022/03/09 03:11:15;;;;;;;;;;;-2.20;99.90;;;;;;5066218;28;20033;-55
2022/03/09 03:13:45;;;;;;;23.08;8.73;;;-2.30;99.90;;;;;;5073972;28;20465;-54
2022/03/09 03:16:12;;;;;;;20.73;7.43;;;-2.30;99.90;;;;;;5073989;28;20377;-55
2022/03/09 03:18:39;;;;;;;20.95;7.63;;;-2.30;99.90;;;;;;5074280;28;20074;-54
2022/03/09 03:21:06;;;;;;;20.23;7.82;;;-2.30;99.90;;;;;;5070307;28;20443;-54
2022/03/09 03:23:34;;;;;;;23.33;8.52;;;-2.30;99.90;;;;;;5073915;28;20044;-54
2022/03/09 03:26:03;;;;;;;18.83;8.32;;;-2.30;99.90;;;;;;5073809;28;20044;-51
2022/03/09 03:28:31;;;;;;;23.02;8.38;;;-2.30;99.90;;;;;;5069756;28;20044;-55
2022/03/09 03:30:58;;;;;;;17.88;7.60;;;-2.30;99.90;;;;;;5073263;28;20044;-53
2022/03/09 03:33:25;;;;;;;21.92;7.95;;;-2.30;99.90;;;;;;5073054;28;20507;-52
2022/03/09 03:35:52;;;;;;;19.38;7.53;;;-2.40;99.90;;;;;;5072771;28;20032;-57
2022/03/09 03:38:19;;;;;;;15.52;7.20;;;-2.40;99.90;;;;;;5066532;28;20040;-54
2022/03/09 03:40:46;;;;;;;17.08;6.93;;;-2.50;99.90;;;;;;5073375;28;20047;-54
2022/03/09 03:43:13;;;;;;;14.13;5.95;;;-2.60;99.90;;;;;;5073301;28;20124;-56
2022/03/09 03:45:40;;;;;;;16.10;6.53;;;-2.60;99.90;;;;;;5065533;28;20040;-54
2022/03/09 03:48:07;;;;;;;24.67;7.18;;;-2.70;99.90;;;;;;5073248;28;20090;-54
2022/03/09 03:50:34;;;;;;;16.30;6.97;;;-2.60;99.90;;;;;;5073122;28;20072;-55
2022/03/09 03:53:02;;;;;;;18.35;7.07;;;-2.60;99.90;;;;;;5071183;28;20071;-54
2022/03/09 03:55:28;;;;;;;17.83;6.90;;;-2.70;99.90;;;;;;5067452;28;20082;-54
2022/03/09 03:57:58;;;;;;;16.35;7.20;;;-2.80;99.90;;;;;;5072949;28;20082;-54
2022/03/09 04:00:24;;;;;;;17.95;7.43;;;-2.80;99.90;;;;;;5073254;28;20045;-54
2022/03/09 04:02:51;;;;;;;21.67;7.70;;;-2.90;99.90;;;;;;5069455;28;20459;-55
2022/03/09 04:05:19;;;;;;;18.17;7.32;;;-3.00;99.90;;;;;;5073016;28;20052;-51
2022/03/09 04:07:46;;;;;;;16.92;7.45;;;-3.00;99.90;;;;;;5072832;28;20037;-55
2022/03/09 04:10:13;;;;;;;;;;;-3.00;99.90;;;;;;5065804;28;20052;-53
2022/03/09 04:12:41;;;;;;;;;;;-3.00;99.90;;;;;;5073285;28;20449;-53
2022/03/09 04:15:08;;;;;;;;;;;-3.00;99.90;;;;;;5073345;28;20434;-53
2022/03/09 04:17:38;;;;;;;;;;;-3.00;99.90;;;;;;5071266;28;19966;-52
2022/03/09 04:20:06;;;;;;;;;;;-3.00;99.90;;;;;;5072493;28;20033;-52
2022/03/09 04:22:32;;;;;;;;;;;-2.90;99.90;;;;;;5072904;28;19920;-55
2022/03/09 04:24:59;;;;;;;;;;;-2.90;99.90;;;;;;5073127;28;19925;-55
2022/03/09 04:27:26;;;;;;;;;;;-3.00;99.90;;;;;;5066823;28;19974;-56
2022/03/09 04:29:55;;;;;;;;;;;-2.90;99.90;;;;;;5072676;28;19920;-53
2022/03/09 04:32:22;;;;;;;;;;;-2.90;99.90;;;;;;5072388;28;20585;-52
2022/03/09 04:34:49;;;;;;;;;;;-2.90;99.90;;;;;;5070026;28;19920;-54
2022/03/09 04:37:15;;;;;;;;;;;-2.90;99.90;;;;;;5072268;28;20475;-52
2022/03/09 04:39:42;;;;;;;;;;;-2.80;99.90;;;;;;5072155;28;20438;-54
2022/03/09 04:42:09;;;;;;;;;;;-2.80;99.90;;;;;;5072739;28;19924;-51
2022/03/09 04:44:36;;;;;;;;;;;-2.80;99.90;;;;;;5068840;28;19924;-53
2022/03/09 04:47:03;;;;;;;;;;;-2.80;99.90;;;;;;5072243;28;19970;-52
2022/03/09 04:49:30;;;;;;;;;;;-2.90;99.90;;;;;;5072381;28;19920;-53
2022/03/09 04:51:56;;;;;;;;;;;-2.90;99.90;;;;;;5072292;28;19970;-51
2022/03/09 04:54:23;;;;;;;;;;;-2.90;99.90;;;;;;5069498;28;20396;-53
2022/03/09 04:56:50;;;;;;;;;;;-3.00;99.90;;;;;;5072007;28;19927;-54
2022/03/09 04:59:17;;;;;;;;;;;-3.00;99.90;;;;;;5072067;28;19970;-55
2022/03/09 05:01:43;;;;;;;;;;;-3.00;99.90;;;;;;5071459;28;19924;-53
2022/03/09 05:04:11;;;;;;;;;;;-2.90;99.90;;;;;;5064134;28;19920;-52
2022/03/09 05:06:37;;;;;;;;;;;-3.00;99.90;;;;;;5072378;28;19985;-55
2022/03/09 05:09:04;;;;;;;;;;;-3.00;99.90;;;;;;5071464;28;19920;-52
2022/03/09 05:11:36;;;;;;;;;;;-3.10;99.90;;;;;;5066356;28;19927;-55
2022/03/09 05:14:03;;;;;;;;;;;-3.10;99.90;;;;;;5070809;28;19931;-54
2022/03/09 05:16:33;;;;;;;;;;;-3.10;99.90;;;;;;5070138;28;19920;-53
2022/03/09 05:19:00;;;;;;;;;;;-3.10;99.90;;;;;;5065866;28;19920;-53
2022/03/09 05:21:27;;;;;;;;;;;-3.10;99.90;;;;;;5072224;28;19924;-54
2022/03/09 05:23:53;;;;;;;;;;;-3.10;99.90;;;;;;5071953;28;19970;-53
2022/03/09 05:26:20;;;;;;;;;;;-3.10;99.90;;;;;;5071597;28;19968;-54
2022/03/09 05:28:47;;;;;;;;;;;-3.20;99.90;;;;;;5070347;28;20006;-53
2022/03/09 05:31:14;;;;;;;;;;;-3.30;99.90;;;;;;5071545;28;20619;-56
2022/03/09 05:33:41;;;;;;;;;;;-3.30;99.90;;;;;;5071953;28;19931;-56
2022/03/09 05:36:07;;;;;;;;;;;-3.40;99.90;;;;;;5070312;28;20478;-53
2022/03/09 05:38:35;;;;;;;;;;;-3.30;99.90;;;;;;5071678;28;19921;-52
2022/03/09 05:41:02;;;;;;;;;;;-3.30;99.90;;;;;;5071743;28;19942;-53
2022/03/09 05:43:28;;;;;;;;;;;-3.30;99.90;;;;;;5070698;28;19978;-53
2022/03/09 05:45:55;;;;;;;;;;;-3.40;99.90;;;;;;5069831;28;20340;-52
2022/03/09 05:48:23;;;;;;;;;;;-3.40;99.90;;;;;;5070928;28;20365;-56
2022/03/09 05:50:49;;;;;;;;;;;-3.30;99.90;;;;;;5071521;28;19920;-54
2022/03/09 05:53:16;;;;;;;;;;;-3.30;99.90;;;;;;5071846;28;19955;-54
2022/03/09 05:55:45;;;;;;;;;;;-3.30;99.90;;;;;;5068541;28;19920;-52
2022/03/09 05:58:12;;;;;;;;;;;-3.30;99.90;;;;;;5078030;28;20447;-54
2022/03/09 06:00:38;;;;;;;;;;;-3.30;99.90;;;;;;5076405;28;19928;-51
2022/03/09 06:03:05;;;;;;;;;;;-3.30;99.90;;;;;;5076137;28;19920;-55
2022/03/09 06:05:33;;;;;;;;;;;-3.30;99.90;;;;;;5077696;28;20307;-51
2022/03/09 06:08:00;;;;;;;;;;;-3.30;99.90;;;;;;5077694;28;19931;-51
2022/03/09 06:10:26;;;;;;;;;;;-3.20;99.90;;;;;;5077428;28;20398;-50
2022/03/09 06:12:53;;;;;;;;;;;-3.20;99.90;;;;;;5076951;28;19920;-53
2022/03/09 06:15:20;;;;;;;;;;;-3.20;99.90;;;;;;5077780;28;19920;-50
2022/03/09 06:17:48;;;;;;;;;;;-3.20;99.90;;;;;;5077952;28;19952;-52
2022/03/09 06:20:16;;;;;;;;;;;-3.10;99.90;;;;;;5078061;28;19968;-51
2022/03/09 06:22:43;;;;;;;;;;;-3.10;99.90;;;;;;5074962;28;19924;-53
2022/03/09 06:25:09;;;;;;;;;;;-3.20;99.90;;;;;;5057937;28;19960;-51
2022/03/09 06:27:47;;;;;;;;;;;-3.20;99.90;;;;;;5057668;28;20431;-51
2022/03/09 06:30:15;;;;;;;;;;;-3.20;99.90;;;;;;5066079;28;19920;-51
2022/03/09 06:32:42;;;;;;;;;;;-3.20;99.90;;;;;;5077419;28;20038;-52
2022/03/09 06:35:09;;;;;;;;;;;-3.20;99.90;;;;;;5077056;28;20399;-51
2022/03/09 06:37:36;;;;;;;;;;;-3.10;99.90;;;;;;5077357;28;19920;-49
2022/03/09 06:40:04;;;;;;;;;;;-3.10;99.90;;;;;;5074305;28;20365;-52
2022/03/09 06:42:31;;;;;;;;;;;-3.10;99.90;;;;;;5077028;28;19924;-51
2022/03/09 06:44:58;;;;;;;;;;;-3.20;99.90;;;;;;5077405;28;19924;-49
2022/03/09 06:47:25;;;;;;;;;;;-3.30;99.90;;;;;;5074665;28;19974;-50
2022/03/09 06:49:52;;;;;;;;;;;-3.30;99.90;;;;;;5073513;28;19920;-50
2022/03/09 06:52:18;;;;;;;;;;;-3.40;99.90;;;;;;5077093;28;19928;-51
2022/03/09 06:54:45;;;;;;;;;;;-3.30;99.90;;;;;;5076760;28;19921;-54
2022/03/09 06:57:15;;;;;;;;;;;-3.20;99.90;;;;;;5071943;28;20274;-49
2022/03/09 06:59:44;;;;;;;;;;;-3.10;99.90;;;;;;5071729;28;20007;-54
2022/03/09 07:02:11;;;;;;;;;;;-3.00;99.90;;;;;;5057242;28;19921;-50
2022/03/09 07:04:38;;;;;;;;;;;-2.80;99.90;;;;;;5057949;28;19921;-51
2022/03/09 07:07:05;;;;;;;;;;;-2.50;99.90;;;;;;5068225;28;19935;-52
2022/03/09 07:09:31;;;;;;;;;;;-2.30;99.90;;;;;;5072958;28;20027;-50
2022/03/09 07:11:58;;;;;;;;;;;-2.10;99.90;;;;;;5074592;28;19920;-50
2022/03/09 07:14:25;;;;;;;;;;;-1.90;99.90;;;;;;5074562;28;19921;-51
2022/03/09 07:16:52;;;;;;;;;;;-1.80;99.90;;;;;;5065514;28;19924;-53
2022/03/09 07:19:19;;;;;;;;;;;-1.60;99.90;;;;;;5073984;28;19920;-50
2022/03/09 07:21:46;;;;;;;;;;;-1.40;99.90;;;;;;5074335;28;19920;-55
2022/03/09 07:24:13;;;;;;;;;;;-1.30;99.90;;;;;;5074172;28;20427;-50
2022/03/09 07:26:41;;;;;;;;;;;-1.30;99.90;;;;;;5065539;28;19920;-52
2022/03/09 07:29:08;;;;;;;;;;;-1.30;99.90;;;;;;5073832;28;20311;-50
2022/03/09 07:31:35;;;;;;;;;;;-1.20;99.90;;;;;;5074065;28;19921;-52
2022/03/09 07:34:02;;;;;;;;;;;-1.10;99.90;;;;;;5070350;28;20434;-52
2022/03/09 07:36:28;;;;;;;;;;;-1.10;99.90;;;;;;5073676;28;19924;-52
2022/03/09 07:38:57;;;;;;;;;;;-0.90;99.90;;;;;;5073543;28;20423;-52
2022/03/09 07:41:40;;;;;;;;;;;-0.70;99.90;;;;;;5073954;28;19927;-51
2022/03/09 07:44:07;;;;;;;;;;;-0.50;99.90;;;;;;5071089;28;20433;-53
2022/03/09 07:46:34;;;;;;;;;;;-0.30;99.90;;;;;;5073943;28;19920;-51
2022/03/09 07:49:01;;;;;;;;;;;-0.20;99.90;;;;;;5073331;28;19953;-50
2022/03/09 07:51:28;;;;;;;;;;;-0.10;99.90;;;;;;5073839;28;19985;-51
2022/03/09 07:53:54;;;;;;;;;;;0.00;99.90;;;;;;5068351;28;19978;-50
2022/03/09 07:56:21;;;;;;;;;;;0.10;99.90;;;;;;5073766;28;19967;-51
2022/03/09 07:58:48;;;;;;;;;;;0.30;99.90;;;;;;5073257;28;19927;-51
2022/03/09 08:01:15;;;;;;;;;;;0.30;99.90;;;;;;5073489;28;20010;-53
2022/03/09 08:03:42;;;;;;;;;;;0.50;99.90;;;;;;5072489;28;20054;-50
2022/03/09 08:06:09;;;;;;;;;;;0.60;99.90;;;;;;5064986;28;19921;-50
2022/03/09 08:08:36;;;;;;;;;;;0.70;99.90;;;;;;5073327;28;20022;-50
2022/03/09 08:11:03;;;;;;;;;;;0.90;99.90;;;;;;5067147;28;19920;-50
2022/03/09 08:13:30;;;;;;;;;;;1.00;99.90;;;;;;5073631;28;19920;-49
2022/03/09 08:15:56;;;;;;;;;;;1.10;99.60;;;;;;5073108;28;19942;-51
2022/03/09 08:18:23;;;;;;;;;;;1.10;98.70;;;;;;5073270;28;19924;-53
2022/03/09 08:20:50;;;;;;;;;;;1.20;99.80;;;;;;5070985;28;19924;-50
2022/03/09 08:23:17;;;;;;;;;;;1.40;99.40;;;;;;5073238;28;19924;-51
2022/03/09 08:25:44;;;;;;;;;;;1.50;98.60;;;;;;5073127;28;19959;-50
2022/03/09 08:28:12;;;;;;;;;;;1.50;98.20;;;;;;5070947;28;19927;-51
2022/03/09 08:30:40;;;;;;;;;;;1.60;99.30;;;;;;5072456;28;19928;-51
2022/03/09 08:33:09;;;;;;;;;;;1.70;99.90;;;;;;5072985;28;19929;-53
2022/03/09 08:35:35;;;;;;;;;;;1.80;98.60;;;;;;5075697;22;19925;-52
2022/03/09 08:38:02;;;;;;;;;;;1.90;96.90;;;;;;5050579;28;20340;-52
2022/03/09 08:40:29;;;;;;;;;;;2.00;97.80;;;;;;5050044;28;19959;-51
2022/03/09 08:42:56;;;;;;;;;;;2.00;97.00;;;;;;5052635;28;20327;-51
2022/03/09 08:45:22;;;;;;;;;;;2.00;96.70;;;;;;5046381;28;19921;-51
2022/03/09 08:47:49;;;;;;;;;;;2.20;96.70;;;;;;5052523;28;19921;-55
2022/03/09 08:50:19;;;;;;;;;;;2.20;96.30;;;;;;5052359;28;19956;-52
2022/03/09 08:53:06;;;;;;;;;;;2.20;96.30;;;;;;5035565;28;20304;-53
2022/03/09 08:55:32;;;;;;;;;;;2.30;96.50;;;;;;5052325;28;19927;-51
2022/03/09 08:58:00;;;;;;;;;;;2.30;95.50;;;;;;5052410;28;19934;-52
2022/03/09 09:00:27;;;;;;;;;;;2.50;95.80;;;;;;5052311;28;19920;-50
2022/03/09 09:02:55;;;;;;;;;;;2.70;95.30;;;;;;5051050;28;19924;-54
2022/03/09 09:05:25;;;;;;;;;;;2.80;95.70;;;;;;5052097;28;20426;-51
2022/03/09 09:07:51;;;;;;;;;;;3.00;95.20;;;;;;5052278;28;19979;-54
2022/03/09 09:10:18;;;;;;;;;;;3.10;94.60;;;;;;5047047;28;20284;-52
2022/03/09 09:12:46;;;;;;;;;;;3.10;94.10;;;;;;5052263;28;19974;-53
2022/03/09 09:15:13;;;;;;;;;;;3.00;93.90;;;;;;5052113;28;19924;-51
2022/03/09 09:17:40;;;;;;;;;;;3.10;93.50;;;;;;5051972;28;19974;-53
2022/03/09 09:20:27;;;;;;;;;;;3.30;93.30;;;;;;5046620;28;20335;-51
2022/03/09 09:22:54;;;;;;;;;;;3.50;91.90;;;;;;5052005;28;19986;-50
2022/03/09 09:25:33;;;;;;;;;;;3.30;92.10;;;;;;5052114;28;20376;-51
2022/03/09 09:28:00;;;;;;;;;;;3.40;91.90;;;;;;5049645;28;19947;-51
2022/03/09 09:30:30;;;;;;;;;;;3.50;91.10;;;;;;5045565;28;19991;-53
2022/03/09 09:32:57;;;;;;;;;;;3.60;90.90;;;;;;5051575;28;19928;-53
2022/03/09 09:35:25;;;;;;;;;;;3.70;90.10;;;;;;5051704;28;19975;-51
2022/03/09 09:37:52;;;;;;;;;;;3.80;90.40;;;;;;5050357;28;20421;-51
2022/03/09 09:40:19;;;;;;;;;;;3.90;88.60;;;;;;5051635;28;19971;-54
2022/03/09 09:42:47;;;;;;;;;;;4.00;87.00;;;;;;5051824;28;19920;-51
2022/03/09 09:45:20;;;;;;;;;;;4.20;85.80;;;;;;5046836;28;19921;-54
2022/03/09 09:47:49;;;;;;;;;;;4.30;85.80;;;;;;5051410;28;20393;-50
2022/03/09 09:50:17;;;;;;;;;;;4.40;85.30;;;;;;5051463;28;20027;-51
2022/03/09 09:52:44;;;;;;;;;;;4.50;82.30;;;;;;5045343;28;19921;-53
2022/03/09 09:55:12;;;;;;;;;;;4.50;81.20;;;;;;5051313;28;19943;-51
2022/03/09 09:57:38;;;;;;;;;;;4.50;80.80;;;;;;5051552;28;19975;-52
2022/03/09 10:00:06;;;;;;;;;;;4.70;80.00;;;;;;5051259;28;20495;-52
2022/03/09 10:02:40;;;;;;;;;;;5.00;79.90;;;;;;5046045;28;19974;-52
2022/03/09 10:05:09;;;;;;;;;;;5.10;78.00;;;;;;5050829;28;19921;-52
2022/03/09 10:07:56;;;;;;;;;;;5.10;77.80;;;;;;5051461;28;19927;-51
2022/03/09 10:10:23;;;;;;;;;;;5.30;76.00;;;;;;5049908;28;19927;-51
2022/03/09 10:12:49;;;;;;;;;;;5.40;75.00;;;;;;5048657;28;19921;-50
2022/03/09 10:15:16;;;;;;;;;;;5.50;75.40;;;;;;5051506;28;19921;-51
2022/03/09 10:17:43;;;;;;;;;;;5.60;75.30;;;;;;5051338;28;19921;-51
2022/03/09 10:20:11;;;;;;;;;;;5.60;75.20;;;;;;5051073;28;20415;-53
2022/03/09 10:22:44;;;;;;;;;;;5.80;74.10;;;;;;5047360;28;19920;-50
2022/03/09 10:25:22;;;;;;;;;;;5.70;73.10;;;;;;5031426;28;20278;-52
2022/03/09 10:27:50;;;;;;;;;;;6.00;72.90;;;;;;5031079;28;20325;-52
2022/03/09 10:30:17;;;;;;;;;;;6.20;71.00;;;;;;5043528;28;19979;-54
2022/03/09 10:32:52;;;;;;;;;;;6.20;69.60;;;;;;5051684;28;20271;-50
2022/03/09 10:35:31;;;;;;;;;;;6.20;69.90;;;;;;5051285;28;20276;-51
2022/03/09 10:38:00;;;;;;;;;;;6.30;67.80;;;;;;5049277;28;20444;-51
2022/03/09 10:40:27;;;;;;;;;;;6.30;68.40;;;;;;5044854;28;20454;-52
2022/03/09 10:43:12;;;;;;;;;;;6.40;67.00;;;;;;5051414;28;19925;-51
2022/03/09 10:45:58;;;;;;;;;;;6.60;66.60;;;;;;5054924;28;19920;-55
2022/03/09 10:48:26;;;;;;;;;;;6.60;63.80;;;;;;5050554;28;20019;-52
2022/03/09 10:50:53;;;;;;;;;;;6.70;64.70;;;;;;5054515;28;19987;-52
2022/03/09 10:53:20;;;;;;;;;;;6.70;64.20;;;;;;5054963;28;20038;-52
2022/03/09 10:55:47;;;;;;;;;;;6.90;64.80;;;;;;5047443;28;19979;-54
2022/03/09 10:58:37;;;;;;;;;;;7.00;63.70;;;;;;5055107;28;19927;-51
2022/03/09 11:01:03;;;;;;;;;;;7.20;63.30;;;;;;5054468;28;19921;-51
2022/03/09 11:03:33;;;;;;;;;;;7.30;62.60;;;;;;5049210;28;20393;-51
2022/03/09 11:06:01;;;;;;;;;;;7.40;62.30;;;;;;5053110;28;19944;-52
2022/03/09 11:08:28;;;;;;;;;;;7.50;63.40;;;;;;5054500;28;19921;-51
2022/03/09 11:10:58;;;;;;;;;;;7.60;63.30;;;;;;5053018;28;19928;-55
2022/03/09 11:13:26;;;;;;;;;;;7.60;60.10;;;;;;5048304;28;19927;-51
2022/03/09 11:15:54;;;;;;;;;;;7.60;59.10;;;;;;5054292;28;19979;-51
2022/03/09 11:18:22;;;;;;;;;;;7.60;58.60;;;;;;5054118;28;19980;-53
2022/03/09 11:20:50;;;;;;;;;;;7.70;60.30;;;;;;5051894;28;19921;-51
2022/03/09 11:23:17;;;;;;;;;;;7.80;60.70;;;;;;5054333;28;19935;-52
2022/03/09 11:26:01;;;;;;;;;;;7.90;57.70;;;;;;5054586;28;20373;-52
2022/03/09 11:28:36;;;;;;;;;;;7.90;59.40;;;;;;5051776;28;19971;-52
2022/03/09 11:31:07;;;;;;;;;;;8.00;59.60;;;;;;5053844;28;19947;-52
2022/03/09 11:33:35;;;;;;;;;;;8.10;60.50;;;;;;5054146;28;19920;-52
2022/03/09 11:36:03;;;;;;;;;;;8.30;59.20;;;;;;5053910;28;19920;-53
2022/03/09 11:38:33;;;;;;;;;;;8.40;58.20;;;;;;5051262;28;19947;-52
2022/03/09 11:41:19;;;;;;;;;;;8.40;57.90;;;;;;5053602;28;19921;-53
2022/03/09 11:43:46;;;;;;;;;;;8.40;57.20;;;;;;5054079;28;19920;-52
2022/03/09 11:46:13;;;;;;;;;;;8.30;56.50;;;;;;5053834;28;19925;-51
2022/03/09 11:48:50;;;;;;;;;;;8.40;56.90;;;;;;5050114;28;19924;-52
2022/03/09 11:51:18;;;;;;;;;;;8.40;57.60;;;;;;5046622;28;19946;-51
2022/03/09 11:53:46;;;;;;;;;;;8.50;55.50;;;;;;5053236;28;19977;-52
2022/03/09 11:56:28;;;;;;;;;;;8.50;54.60;;;;;;5045911;28;20412;-52
2022/03/09 11:59:07;;;;;;;;;;;8.50;54.60;;;;;;5053102;28;20397;-51
2022/03/09 12:01:53;;;;;;;;;;;8.60;54.80;;;;;;5035655;28;20388;-51
2022/03/09 12:04:39;;;;;;;;;;;8.70;54.10;;;;;;5045747;28;19927;-54
2022/03/09 12:07:06;;;;;;;;;;;8.90;53.50;;;;;;5053070;28;19932;-52
2022/03/09 12:09:51;;;;;;;;;;;9.00;52.70;;;;;;5053192;28;19920;-55
2022/03/09 12:12:18;;;;;;;;;;;9.00;52.80;;;;;;5053294;28;19990;-51
2022/03/09 12:15:01;;;;;;;;;;;9.20;52.40;;;;;;5050227;28;19929;-51
2022/03/09 12:17:37;;;;;;;;;;;9.20;50.30;;;;;;5053236;28;19970;-53
2022/03/09 12:20:17;;;;;;;;;;;9.20;51.20;;;;;;5053092;28;19924;-55
2022/03/09 12:22:56;;;;;;;;;;;9.30;51.80;;;;;;5047061;28;19936;-52
2022/03/09 12:25:41;;;;;;;;;;;9.40;50.50;;;;;;5053040;28;19921;-52
2022/03/09 12:28:32;;;;;;;;;;;9.40;52.90;;;;;;5052748;28;19927;-52
2022/03/09 12:31:07;;;;;;;;;;;9.40;51.10;;;;;;5043467;28;19944;-51
2022/03/09 12:33:38;;;;;;;;;;;9.50;54.00;;;;;;5053000;28;19978;-51
2022/03/09 12:36:10;;;;;;;;;;;9.60;53.30;;;;;;5052635;28;20377;-53
2022/03/09 12:38:55;;;;;;;;;;;9.70;53.40;;;;;;5051196;28;19971;-51
2022/03/09 12:41:33;;;;;;;;;;;9.70;53.20;;;;;;5046265;28;19924;-52
2022/03/09 12:44:05;;;;;;;;;;;9.80;53.30;;;;;;5052679;28;19924;-52
2022/03/09 12:46:33;;;;;;;;;;;9.90;52.20;;;;;;5052568;28;19990;-51
2022/03/09 12:49:05;;;;;;;;;;;10.00;52.20;;;;;;5044795;28;20011;-51
2022/03/09 12:51:32;;;;;;;;;;;10.00;52.90;;;;;;5052551;28;19970;-51
2022/03/09 12:54:28;;;;;;;;;;;10.20;53.20;;;;;;5052699;28;19927;-51
2022/03/09 12:56:54;;;;;;;;;;;10.30;51.80;;;;;;5046157;28;20331;-53
2022/03/09 12:59:21;;;;;;;;;;;10.30;52.80;;;;;;5051899;28;19920;-51
2022/03/09 13:01:54;;;;;;;;;;;10.30;51.70;;;;;;5052773;28;19927;-56
2022/03/09 13:04:22;;;;;;;;;;;10.40;53.80;;;;;;5050697;28;19921;-52
2022/03/09 13:06:50;;;;;;;;;;;10.40;50.60;;;;;;5051223;28;20300;-51
2022/03/09 13:09:23;;;;;;;;;;;10.40;53.00;;;;;;5052048;28;20296;-52
2022/03/09 13:11:51;;;;;;;;;;;10.30;51.70;;;;;;5051083;28;19921;-52
2022/03/09 13:14:19;;;;;;;;;;;10.30;52.50;;;;;;5052010;28;20339;-54
2022/03/09 13:16:46;;;;;;;;;;;10.40;50.30;;;;;;5052070;28;19921;-51
2022/03/09 13:19:13;;;;;;;;;;;10.30;52.40;;;;;;5051904;28;19932;-51
2022/03/09 13:21:40;;;;;;;;;;;10.40;52.00;;;;;;5047138;28;19932;-52
2022/03/09 13:24:10;;;;;;;;;;;10.40;51.20;;;;;;5051401;28;19920;-51
2022/03/09 13:26:44;;;;;;;;;;;10.50;50.20;;;;;;5051975;28;19974;-53
2022/03/09 13:29:19;;;;;;;;;;;10.50;50.90;;;;;;5051606;28;19940;-53
2022/03/09 13:31:49;;;;;;;;;;;10.50;50.70;;;;;;5045280;28;20270;-52
2022/03/09 13:34:17;;;;;;;;;;;10.50;49.90;;;;;;5051816;28;19959;-51
2022/03/09 13:36:44;;;;;;;;;;;10.50;51.00;;;;;;5051684;28;20335;-51
2022/03/09 13:39:11;;;;;;;;;;;10.60;50.50;;;;;;5051533;28;19924;-52
2022/03/09 13:41:40;;;;;;;;;;;10.70;50.50;;;;;;5042927;28;19928;-51
2022/03/09 13:44:26;;;;;;;;;;;10.70;51.20;;;;;;5051790;28;19967;-51
2022/03/09 13:47:19;;;;;;;;;;;10.70;51.60;;;;;;5051798;28;20211;-52
2022/03/09 13:49:47;;;;;;;;;;;10.60;50.50;;;;;;5040996;28;20340;-52
2022/03/09 13:52:31;;;;;;;;;;;10.70;49.80;;;;;;5051391;28;19925;-54
2022/03/09 13:54:59;;;;;;;;;;;10.60;50.40;;;;;;5051781;28;20257;-53
2022/03/09 13:57:29;;;;;;;;;;;10.60;48.70;;;;;;5051615;28;19951;-51
2022/03/09 13:59:57;;;;;;;;;;;10.60;50.10;;;;;;5050209;28;19978;-52
2022/03/09 14:02:25;;;;;;;;;;;10.60;49.70;;;;;;5051551;28;19929;-51